Accueil
METAR-TAF:

METAR-TAF

Aéroports :

Coxyde, Belgique

Base aérienne de Coxyde

latitude: 51-05N, longitude: 002-39E, altitude: 4 m

Observation

Le bulletin a été fait il y a 22 minutes, à 19:55 UTC
Vent 4 kt de est
Température -1°C
Humidité 86%
Pression 1025 hPa
Visibilité 10 km ou plus
Quelques nuages à une hauteur de 30000 ft

METAR: EBFN 041955Z 09004KT 9999 FEW300 M01/M03 Q1025 BLU

Heure: 21:17 (20:17 UTC)

Prévision

Le bulletin a été fait il y a 7 heures et 35 minutes, à 12:42 UTC
Prévision valable du 04 à 19 UTC au 05 à 07 UTC
Vent 5 kt de est/sud-est
Visibilité 10 km ou plus
Ciel clair

TAF: EBFN 041242Z 0419/0507 11005KT 9999 SKC BY EBWM

Observations et prévisions météorologiques de plus de 4000 aéroports (messages METAR et TAF).

Les stations disponibles sont représentées par des disques jaunes et rouges sur la carte.

Passer la souris dessus pour voir le nom de la station.

Cliquer dessus pour voir les observations et prévisions météorologiques.

Pour changer de carte: cliquez sur les boutons verts avec une croix noire pour zoomer, sur le bouton vert avec un tiret pour effectuer un zoom arrière, ou sur les flèches vertes pour les cartes adjacentes.


METAR-TAF: